sensor_id;sensor_type;location;lat;lon;timestamp;P1;durP1;ratioP1;P2;durP2;ratioP2
51654;SDS011;37732;53.106;7.030;2023-09-07T00:01:50;7.72;;;5.68;;
51654;SDS011;37732;53.106;7.030;2023-09-07T00:04:21;7.10;;;5.30;;
51654;SDS011;37732;53.106;7.030;2023-09-07T00:06:48;6.32;;;5.38;;
51654;SDS011;37732;53.106;7.030;2023-09-07T00:09:16;8.73;;;5.53;;
51654;SDS011;37732;53.106;7.030;2023-09-07T00:11:47;6.60;;;5.25;;
51654;SDS011;37732;53.106;7.030;2023-09-07T00:14:14;10.50;;;5.68;;
51654;SDS011;37732;53.106;7.030;2023-09-07T00:16:40;8.50;;;4.90;;
51654;SDS011;37732;53.106;7.030;2023-09-07T00:19:09;7.57;;;5.30;;
51654;SDS011;37732;53.106;7.030;2023-09-07T00:21:37;6.22;;;4.78;;
51654;SDS011;37732;53.106;7.030;2023-09-07T00:24:05;7.80;;;5.20;;
51654;SDS011;37732;53.106;7.030;2023-09-07T00:26:32;6.05;;;5.00;;
51654;SDS011;37732;53.106;7.030;2023-09-07T00:29:00;10.13;;;5.70;;
51654;SDS011;37732;53.106;7.030;2023-09-07T00:31:30;5.93;;;5.00;;
51654;SDS011;37732;53.106;7.030;2023-09-07T00:33:59;7.93;;;5.72;;
51654;SDS011;37732;53.106;7.030;2023-09-07T00:36:27;8.27;;;5.75;;
51654;SDS011;37732;53.106;7.030;2023-09-07T00:38:54;7.90;;;6.32;;
51654;SDS011;37732;53.106;7.030;2023-09-07T00:41:20;10.85;;;6.45;;
51654;SDS011;37732;53.106;7.030;2023-09-07T00:43:47;7.80;;;6.13;;
51654;SDS011;37732;53.106;7.030;2023-09-07T00:46:14;9.98;;;6.07;;
51654;SDS011;37732;53.106;7.030;2023-09-07T00:48:46;7.05;;;5.68;;
51654;SDS011;37732;53.106;7.030;2023-09-07T00:51:14;7.00;;;5.18;;
51654;SDS011;37732;53.106;7.030;2023-09-07T00:53:40;7.43;;;5.80;;
51654;SDS011;37732;53.106;7.030;2023-09-07T00:56:07;6.97;;;4.82;;
51654;SDS011;37732;53.106;7.030;2023-09-07T00:58:36;7.90;;;5.50;;
51654;SDS011;37732;53.106;7.030;2023-09-07T01:03:40;7.80;;;5.30;;
51654;SDS011;37732;53.106;7.030;2023-09-07T01:06:07;8.20;;;5.68;;
51654;SDS011;37732;53.106;7.030;2023-09-07T01:08:44;7.65;;;5.95;;
51654;SDS011;37732;53.106;7.030;2023-09-07T01:11:17;6.68;;;5.90;;
51654;SDS011;37732;53.106;7.030;2023-09-07T01:13:53;8.25;;;5.65;;
51654;SDS011;37732;53.106;7.030;2023-09-07T01:16:22;9.15;;;6.53;;
51654;SDS011;37732;53.106;7.030;2023-09-07T01:18:52;9.02;;;5.68;;
51654;SDS011;37732;53.106;7.030;2023-09-07T01:21:19;7.63;;;5.57;;
51654;SDS011;37732;53.106;7.030;2023-09-07T01:23:52;6.85;;;5.70;;
51654;SDS011;37732;53.106;7.030;2023-09-07T01:26:21;8.18;;;5.57;;
51654;SDS011;37732;53.106;7.030;2023-09-07T01:28:50;9.15;;;6.20;;
51654;SDS011;37732;53.106;7.030;2023-09-07T01:31:19;7.43;;;5.60;;
51654;SDS011;37732;53.106;7.030;2023-09-07T01:33:47;7.18;;;5.82;;
51654;SDS011;37732;53.106;7.030;2023-09-07T01:36:13;6.88;;;5.75;;
51654;SDS011;37732;53.106;7.030;2023-09-07T01:38:39;8.65;;;6.13;;
51654;SDS011;37732;53.106;7.030;2023-09-07T01:41:05;11.27;;;6.70;;
51654;SDS011;37732;53.106;7.030;2023-09-07T01:43:31;6.40;;;5.43;;
51654;SDS011;37732;53.106;7.030;2023-09-07T01:46:00;8.90;;;5.85;;
51654;SDS011;37732;53.106;7.030;2023-09-07T01:48:28;9.15;;;6.30;;
51654;SDS011;37732;53.106;7.030;2023-09-07T01:50:57;6.50;;;5.78;;
51654;SDS011;37732;53.106;7.030;2023-09-07T01:53:26;10.15;;;6.88;;
51654;SDS011;37732;53.106;7.030;2023-09-07T01:55:55;11.00;;;6.55;;
51654;SDS011;37732;53.106;7.030;2023-09-07T01:58:22;9.73;;;6.97;;
51654;SDS011;37732;53.106;7.030;2023-09-07T02:00:49;9.25;;;7.30;;
51654;SDS011;37732;53.106;7.030;2023-09-07T02:03:15;9.65;;;6.88;;
51654;SDS011;37732;53.106;7.030;2023-09-07T02:05:43;13.40;;;8.52;;
51654;SDS011;37732;53.106;7.030;2023-09-07T02:08:11;7.38;;;5.80;;
51654;SDS011;37732;53.106;7.030;2023-09-07T02:10:39;8.75;;;6.50;;
51654;SDS011;37732;53.106;7.030;2023-09-07T02:13:07;9.02;;;7.18;;
51654;SDS011;37732;53.106;7.030;2023-09-07T02:15:36;7.97;;;6.95;;
51654;SDS011;37732;53.106;7.030;2023-09-07T02:18:10;6.55;;;5.85;;
51654;SDS011;37732;53.106;7.030;2023-09-07T02:20:40;7.68;;;5.82;;
51654;SDS011;37732;53.106;7.030;2023-09-07T02:23:07;6.80;;;5.88;;
51654;SDS011;37732;53.106;7.030;2023-09-07T02:25:35;9.07;;;6.80;;
51654;SDS011;37732;53.106;7.030;2023-09-07T02:28:05;9.38;;;6.30;;
51654;SDS011;37732;53.106;7.030;2023-09-07T02:30:34;8.50;;;6.03;;
51654;SDS011;37732;53.106;7.030;2023-09-07T02:33:02;7.80;;;6.50;;
51654;SDS011;37732;53.106;7.030;2023-09-07T02:35:30;7.60;;;6.13;;
51654;SDS011;37732;53.106;7.030;2023-09-07T02:37:58;7.22;;;5.47;;
51654;SDS011;37732;53.106;7.030;2023-09-07T02:40:25;8.27;;;6.22;;
51654;SDS011;37732;53.106;7.030;2023-09-07T02:42:52;7.85;;;5.95;;
51654;SDS011;37732;53.106;7.030;2023-09-07T02:45:20;8.43;;;6.38;;
51654;SDS011;37732;53.106;7.030;2023-09-07T02:47:49;8.05;;;7.18;;
51654;SDS011;37732;53.106;7.030;2023-09-07T02:50:19;7.55;;;6.68;;
51654;SDS011;37732;53.106;7.030;2023-09-07T02:52:50;8.18;;;6.05;;
51654;SDS011;37732;53.106;7.030;2023-09-07T02:55:18;8.23;;;6.80;;
51654;SDS011;37732;53.106;7.030;2023-09-07T02:57:47;11.00;;;8.23;;
51654;SDS011;37732;53.106;7.030;2023-09-07T03:00:18;11.93;;;7.20;;
51654;SDS011;37732;53.106;7.030;2023-09-07T03:02:44;9.18;;;7.43;;
51654;SDS011;37732;53.106;7.030;2023-09-07T03:05:11;8.07;;;7.00;;
51654;SDS011;37732;53.106;7.030;2023-09-07T03:07:41;8.30;;;7.13;;
51654;SDS011;37732;53.106;7.030;2023-09-07T03:10:10;7.97;;;6.50;;
51654;SDS011;37732;53.106;7.030;2023-09-07T03:12:36;7.13;;;5.95;;
51654;SDS011;37732;53.106;7.030;2023-09-07T03:15:02;8.13;;;6.80;;
51654;SDS011;37732;53.106;7.030;2023-09-07T03:17:30;8.77;;;6.78;;
51654;SDS011;37732;53.106;7.030;2023-09-07T03:19:57;7.35;;;6.50;;
51654;SDS011;37732;53.106;7.030;2023-09-07T03:22:26;8.05;;;7.03;;
51654;SDS011;37732;53.106;7.030;2023-09-07T03:24:54;8.27;;;7.10;;
51654;SDS011;37732;53.106;7.030;2023-09-07T03:27:21;8.07;;;7.00;;
51654;SDS011;37732;53.106;7.030;2023-09-07T03:29:49;8.57;;;6.60;;
51654;SDS011;37732;53.106;7.030;2023-09-07T03:32:21;8.48;;;7.40;;
51654;SDS011;37732;53.106;7.030;2023-09-07T03:34:50;10.15;;;7.88;;
51654;SDS011;37732;53.106;7.030;2023-09-07T03:37:17;9.05;;;7.18;;
51654;SDS011;37732;53.106;7.030;2023-09-07T03:39:45;9.75;;;8.00;;
51654;SDS011;37732;53.106;7.030;2023-09-07T03:42:15;10.27;;;8.65;;
51654;SDS011;37732;53.106;7.030;2023-09-07T03:44:43;9.50;;;7.90;;
51654;SDS011;37732;53.106;7.030;2023-09-07T03:47:10;8.13;;;7.18;;
51654;SDS011;37732;53.106;7.030;2023-09-07T03:49:37;9.65;;;8.63;;
51654;SDS011;37732;53.106;7.030;2023-09-07T03:52:04;9.68;;;7.70;;
51654;SDS011;37732;53.106;7.030;2023-09-07T03:54:31;9.63;;;8.35;;
51654;SDS011;37732;53.106;7.030;2023-09-07T03:57:02;9.73;;;7.57;;
51654;SDS011;37732;53.106;7.030;2023-09-07T03:59:31;8.80;;;6.95;;
51654;SDS011;37732;53.106;7.030;2023-09-07T04:02:01;11.15;;;8.48;;
51654;SDS011;37732;53.106;7.030;2023-09-07T04:04:27;8.55;;;7.50;;
51654;SDS011;37732;53.106;7.030;2023-09-07T04:06:53;9.15;;;7.65;;
51654;SDS011;37732;53.106;7.030;2023-09-07T04:09:24;9.25;;;7.05;;
51654;SDS011;37732;53.106;7.030;2023-09-07T04:11:53;11.40;;;7.38;;
51654;SDS011;37732;53.106;7.030;2023-09-07T04:14:22;8.25;;;6.72;;
51654;SDS011;37732;53.106;7.030;2023-09-07T04:16:48;8.02;;;7.05;;
51654;SDS011;37732;53.106;7.030;2023-09-07T04:19:21;10.05;;;7.13;;
51654;SDS011;37732;53.106;7.030;2023-09-07T04:21:48;8.90;;;7.60;;
51654;SDS011;37732;53.106;7.030;2023-09-07T04:24:18;7.72;;;6.93;;
51654;SDS011;37732;53.106;7.030;2023-09-07T04:26:47;8.38;;;7.15;;
51654;SDS011;37732;53.106;7.030;2023-09-07T04:29:17;7.40;;;6.65;;
51654;SDS011;37732;53.106;7.030;2023-09-07T04:31:44;8.48;;;6.88;;
51654;SDS011;37732;53.106;7.030;2023-09-07T04:34:12;8.68;;;7.18;;
51654;SDS011;37732;53.106;7.030;2023-09-07T04:36:41;10.63;;;7.38;;
51654;SDS011;37732;53.106;7.030;2023-09-07T04:39:10;8.35;;;7.43;;
51654;SDS011;37732;53.106;7.030;2023-09-07T04:41:43;8.93;;;7.53;;
51654;SDS011;37732;53.106;7.030;2023-09-07T04:44:12;10.57;;;8.70;;
51654;SDS011;37732;53.106;7.030;2023-09-07T04:46:39;10.05;;;7.97;;
51654;SDS011;37732;53.106;7.030;2023-09-07T04:49:07;8.38;;;7.53;;
51654;SDS011;37732;53.106;7.030;2023-09-07T04:51:40;8.88;;;7.90;;
51654;SDS011;37732;53.106;7.030;2023-09-07T04:54:09;12.02;;;7.57;;
51654;SDS011;37732;53.106;7.030;2023-09-07T04:56:44;11.85;;;7.75;;
51654;SDS011;37732;53.106;7.030;2023-09-07T04:59:10;11.38;;;8.52;;
51654;SDS011;37732;53.106;7.030;2023-09-07T05:01:37;10.52;;;9.43;;
51654;SDS011;37732;53.106;7.030;2023-09-07T05:04:08;8.98;;;7.38;;
51654;SDS011;37732;53.106;7.030;2023-09-07T05:06:34;9.02;;;7.97;;
51654;SDS011;37732;53.106;7.030;2023-09-07T05:09:06;9.60;;;7.57;;
51654;SDS011;37732;53.106;7.030;2023-09-07T05:11:34;11.55;;;8.88;;
51654;SDS011;37732;53.106;7.030;2023-09-07T05:14:04;10.98;;;8.60;;
51654;SDS011;37732;53.106;7.030;2023-09-07T05:16:34;9.60;;;8.43;;
51654;SDS011;37732;53.106;7.030;2023-09-07T05:19:03;10.15;;;8.13;;
51654;SDS011;37732;53.106;7.030;2023-09-07T05:21:30;9.00;;;8.10;;
51654;SDS011;37732;53.106;7.030;2023-09-07T05:23:57;11.88;;;9.75;;
51654;SDS011;37732;53.106;7.030;2023-09-07T05:26:23;9.98;;;8.30;;
51654;SDS011;37732;53.106;7.030;2023-09-07T05:28:49;18.13;;;10.63;;
51654;SDS011;37732;53.106;7.030;2023-09-07T05:31:19;11.00;;;8.43;;
51654;SDS011;37732;53.106;7.030;2023-09-07T05:33:48;13.43;;;9.00;;
51654;SDS011;37732;53.106;7.030;2023-09-07T05:36:18;15.13;;;11.45;;
51654;SDS011;37732;53.106;7.030;2023-09-07T05:38:47;10.13;;;9.02;;
51654;SDS011;37732;53.106;7.030;2023-09-07T05:41:15;12.43;;;9.60;;
51654;SDS011;37732;53.106;7.030;2023-09-07T05:43:42;9.43;;;8.48;;
51654;SDS011;37732;53.106;7.030;2023-09-07T05:46:09;12.52;;;9.02;;
51654;SDS011;37732;53.106;7.030;2023-09-07T05:48:36;12.82;;;9.93;;
51654;SDS011;37732;53.106;7.030;2023-09-07T05:51:04;11.73;;;9.57;;
51654;SDS011;37732;53.106;7.030;2023-09-07T05:53:31;10.57;;;9.50;;
51654;SDS011;37732;53.106;7.030;2023-09-07T05:55:59;11.55;;;10.35;;
51654;SDS011;37732;53.106;7.030;2023-09-07T05:58:28;13.48;;;11.20;;
51654;SDS011;37732;53.106;7.030;2023-09-07T06:00:58;12.27;;;9.85;;
51654;SDS011;37732;53.106;7.030;2023-09-07T06:03:29;11.13;;;9.73;;
51654;SDS011;37732;53.106;7.030;2023-09-07T06:05:59;11.60;;;10.45;;
51654;SDS011;37732;53.106;7.030;2023-09-07T06:08:28;16.35;;;11.13;;
51654;SDS011;37732;53.106;7.030;2023-09-07T06:10:54;11.63;;;10.35;;
51654;SDS011;37732;53.106;7.030;2023-09-07T06:13:22;12.45;;;10.35;;
51654;SDS011;37732;53.106;7.030;2023-09-07T06:15:49;17.15;;;12.23;;
51654;SDS011;37732;53.106;7.030;2023-09-07T06:18:19;13.27;;;11.13;;
51654;SDS011;37732;53.106;7.030;2023-09-07T06:20:49;12.52;;;11.10;;
51654;SDS011;37732;53.106;7.030;2023-09-07T06:23:19;14.30;;;12.80;;
51654;SDS011;37732;53.106;7.030;2023-09-07T06:25:48;12.40;;;10.75;;
51654;SDS011;37732;53.106;7.030;2023-09-07T06:28:18;14.52;;;10.98;;
51654;SDS011;37732;53.106;7.030;2023-09-07T06:30:44;12.38;;;11.05;;
51654;SDS011;37732;53.106;7.030;2023-09-07T06:33:11;13.13;;;10.65;;
51654;SDS011;37732;53.106;7.030;2023-09-07T06:35:41;14.40;;;10.50;;
51654;SDS011;37732;53.106;7.030;2023-09-07T06:38:08;13.65;;;10.38;;
51654;SDS011;37732;53.106;7.030;2023-09-07T06:40:36;15.02;;;10.90;;
51654;SDS011;37732;53.106;7.030;2023-09-07T06:43:03;13.55;;;11.07;;
51654;SDS011;37732;53.106;7.030;2023-09-07T06:45:34;13.23;;;10.88;;
51654;SDS011;37732;53.106;7.030;2023-09-07T06:48:03;15.75;;;11.25;;
51654;SDS011;37732;53.106;7.030;2023-09-07T06:50:33;15.13;;;10.45;;
51654;SDS011;37732;53.106;7.030;2023-09-07T06:52:59;15.85;;;10.60;;
51654;SDS011;37732;53.106;7.030;2023-09-07T06:55:28;13.07;;;9.75;;
51654;SDS011;37732;53.106;7.030;2023-09-07T06:57:55;14.52;;;10.60;;
51654;SDS011;37732;53.106;7.030;2023-09-07T07:00:24;13.15;;;10.18;;
51654;SDS011;37732;53.106;7.030;2023-09-07T07:02:52;12.25;;;10.23;;
51654;SDS011;37732;53.106;7.030;2023-09-07T07:05:21;12.82;;;9.85;;
51654;SDS011;37732;53.106;7.030;2023-09-07T07:07:49;12.50;;;9.27;;
51654;SDS011;37732;53.106;7.030;2023-09-07T07:10:15;13.35;;;8.98;;
51654;SDS011;37732;53.106;7.030;2023-09-07T07:12:43;15.75;;;9.27;;
51654;SDS011;37732;53.106;7.030;2023-09-07T07:15:12;12.50;;;8.95;;
51654;SDS011;37732;53.106;7.030;2023-09-07T07:17:40;12.90;;;8.63;;
51654;SDS011;37732;53.106;7.030;2023-09-07T07:20:11;12.32;;;8.15;;
51654;SDS011;37732;53.106;7.030;2023-09-07T07:22:37;12.80;;;9.10;;
51654;SDS011;37732;53.106;7.030;2023-09-07T07:25:05;11.93;;;8.20;;
51654;SDS011;37732;53.106;7.030;2023-09-07T07:27:32;13.18;;;8.60;;
51654;SDS011;37732;53.106;7.030;2023-09-07T07:30:01;12.20;;;9.30;;
51654;SDS011;37732;53.106;7.030;2023-09-07T07:32:29;10.60;;;8.63;;
51654;SDS011;37732;53.106;7.030;2023-09-07T07:34:58;11.15;;;8.13;;
51654;SDS011;37732;53.106;7.030;2023-09-07T07:37:26;11.30;;;8.02;;
51654;SDS011;37732;53.106;7.030;2023-09-07T07:39:52;9.63;;;8.15;;
51654;SDS011;37732;53.106;7.030;2023-09-07T07:42:22;13.80;;;7.72;;
51654;SDS011;37732;53.106;7.030;2023-09-07T07:44:49;11.02;;;8.63;;
51654;SDS011;37732;53.106;7.030;2023-09-07T07:47:17;10.43;;;7.68;;
51654;SDS011;37732;53.106;7.030;2023-09-07T07:49:44;10.05;;;7.88;;
51654;SDS011;37732;53.106;7.030;2023-09-07T07:52:11;10.43;;;7.90;;
51654;SDS011;37732;53.106;7.030;2023-09-07T07:54:40;10.68;;;7.50;;
51654;SDS011;37732;53.106;7.030;2023-09-07T07:57:07;12.00;;;7.40;;
51654;SDS011;37732;53.106;7.030;2023-09-07T07:59:33;11.07;;;7.80;;
51654;SDS011;37732;53.106;7.030;2023-09-07T08:02:00;13.25;;;7.65;;
51654;SDS011;37732;53.106;7.030;2023-09-07T08:04:33;8.63;;;6.18;;
51654;SDS011;37732;53.106;7.030;2023-09-07T08:07:03;13.50;;;7.22;;
51654;SDS011;37732;53.106;7.030;2023-09-07T08:09:34;12.60;;;7.05;;
51654;SDS011;37732;53.106;7.030;2023-09-07T08:12:05;11.35;;;6.82;;
51654;SDS011;37732;53.106;7.030;2023-09-07T08:14:32;9.13;;;7.35;;
51654;SDS011;37732;53.106;7.030;2023-09-07T08:17:01;10.82;;;7.45;;
51654;SDS011;37732;53.106;7.030;2023-09-07T08:19:28;14.95;;;7.22;;
51654;SDS011;37732;53.106;7.030;2023-09-07T08:21:57;11.68;;;7.80;;
51654;SDS011;37732;53.106;7.030;2023-09-07T08:24:24;12.00;;;7.05;;
51654;SDS011;37732;53.106;7.030;2023-09-07T08:26:55;10.90;;;6.18;;
51654;SDS011;37732;53.106;7.030;2023-09-07T08:29:26;8.95;;;5.80;;
51654;SDS011;37732;53.106;7.030;2023-09-07T08:31:57;7.88;;;5.75;;
51654;SDS011;37732;53.106;7.030;2023-09-07T08:34:26;9.07;;;6.70;;
51654;SDS011;37732;53.106;7.030;2023-09-07T08:37:17;9.52;;;6.50;;
51654;SDS011;37732;53.106;7.030;2023-09-07T08:40:03;9.38;;;6.22;;
51654;SDS011;37732;53.106;7.030;2023-09-07T08:42:52;12.15;;;7.72;;
51654;SDS011;37732;53.106;7.030;2023-09-07T08:45:55;12.73;;;7.13;;
51654;SDS011;37732;53.106;7.030;2023-09-07T08:48:33;9.48;;;7.05;;
51654;SDS011;37732;53.106;7.030;2023-09-07T08:51:09;6.78;;;6.00;;
51654;SDS011;37732;53.106;7.030;2023-09-07T08:53:39;10.07;;;6.38;;
51654;SDS011;37732;53.106;7.030;2023-09-07T08:56:14;7.75;;;6.68;;
51654;SDS011;37732;53.106;7.030;2023-09-07T08:58:45;8.85;;;6.57;;
51654;SDS011;37732;53.106;7.030;2023-09-07T09:01:15;8.32;;;6.57;;
51654;SDS011;37732;53.106;7.030;2023-09-07T09:03:44;11.65;;;7.10;;
51654;SDS011;37732;53.106;7.030;2023-09-07T09:06:12;9.93;;;7.18;;
51654;SDS011;37732;53.106;7.030;2023-09-07T09:08:55;8.13;;;5.63;;
51654;SDS011;37732;53.106;7.030;2023-09-07T09:11:22;9.90;;;6.57;;
51654;SDS011;37732;53.106;7.030;2023-09-07T09:13:54;9.80;;;6.57;;
51654;SDS011;37732;53.106;7.030;2023-09-07T09:16:21;12.27;;;6.30;;
51654;SDS011;37732;53.106;7.030;2023-09-07T09:18:52;8.70;;;6.65;;
51654;SDS011;37732;53.106;7.030;2023-09-07T09:21:23;6.93;;;5.82;;
51654;SDS011;37732;53.106;7.030;2023-09-07T09:23:53;8.15;;;6.55;;
51654;SDS011;37732;53.106;7.030;2023-09-07T09:26:33;8.10;;;7.05;;
51654;SDS011;37732;53.106;7.030;2023-09-07T09:29:05;10.82;;;7.22;;
51654;SDS011;37732;53.106;7.030;2023-09-07T09:31:35;8.82;;;5.97;;
51654;SDS011;37732;53.106;7.030;2023-09-07T09:34:03;9.45;;;7.22;;
51654;SDS011;37732;53.106;7.030;2023-09-07T09:36:36;7.53;;;6.38;;
51654;SDS011;37732;53.106;7.030;2023-09-07T09:39:04;9.43;;;6.73;;
51654;SDS011;37732;53.106;7.030;2023-09-07T09:41:37;8.43;;;5.43;;
51654;SDS011;37732;53.106;7.030;2023-09-07T09:44:05;8.95;;;5.88;;
51654;SDS011;37732;53.106;7.030;2023-09-07T09:46:32;7.60;;;6.57;;
51654;SDS011;37732;53.106;7.030;2023-09-07T09:49:03;10.73;;;7.18;;
51654;SDS011;37732;53.106;7.030;2023-09-07T09:51:31;7.63;;;5.80;;
51654;SDS011;37732;53.106;7.030;2023-09-07T09:54:00;7.88;;;5.80;;
51654;SDS011;37732;53.106;7.030;2023-09-07T09:56:30;10.13;;;5.90;;
51654;SDS011;37732;53.106;7.030;2023-09-07T09:59:01;7.07;;;5.43;;
51654;SDS011;37732;53.106;7.030;2023-09-07T10:01:27;6.72;;;5.13;;
51654;SDS011;37732;53.106;7.030;2023-09-07T10:03:54;7.55;;;5.80;;
51654;SDS011;37732;53.106;7.030;2023-09-07T10:06:27;7.90;;;6.32;;
51654;SDS011;37732;53.106;7.030;2023-09-07T10:09:03;6.50;;;5.40;;
51654;SDS011;37732;53.106;7.030;2023-09-07T10:11:36;10.23;;;5.95;;
51654;SDS011;37732;53.106;7.030;2023-09-07T10:14:05;8.18;;;5.55;;
51654;SDS011;37732;53.106;7.030;2023-09-07T10:16:42;8.80;;;5.32;;
51654;SDS011;37732;53.106;7.030;2023-09-07T10:19:19;8.20;;;5.45;;
51654;SDS011;37732;53.106;7.030;2023-09-07T10:21:48;7.13;;;5.35;;
51654;SDS011;37732;53.106;7.030;2023-09-07T10:24:25;7.32;;;5.68;;
51654;SDS011;37732;53.106;7.030;2023-09-07T10:27:08;6.75;;;5.75;;
51654;SDS011;37732;53.106;7.030;2023-09-07T10:32:09;6.37;;;5.23;;
51654;SDS011;37732;53.106;7.030;2023-09-07T10:34:40;7.20;;;5.35;;
51654;SDS011;37732;53.106;7.030;2023-09-07T10:37:11;10.02;;;5.03;;
51654;SDS011;37732;53.106;7.030;2023-09-07T10:39:48;7.03;;;5.00;;
51654;SDS011;37732;53.106;7.030;2023-09-07T10:42:30;8.77;;;5.07;;
51654;SDS011;37732;53.106;7.030;2023-09-07T10:45:07;7.78;;;5.20;;
51654;SDS011;37732;53.106;7.030;2023-09-07T10:47:42;6.95;;;5.03;;
51654;SDS011;37732;53.106;7.030;2023-09-07T10:50:10;6.70;;;5.18;;
51654;SDS011;37732;53.106;7.030;2023-09-07T10:52:38;9.48;;;4.93;;
51654;SDS011;37732;53.106;7.030;2023-09-07T10:55:08;6.72;;;5.60;;
51654;SDS011;37732;53.106;7.030;2023-09-07T10:57:45;7.85;;;5.32;;
51654;SDS011;37732;53.106;7.030;2023-09-07T11:00:12;6.40;;;5.03;;
51654;SDS011;37732;53.106;7.030;2023-09-07T11:02:42;6.95;;;5.10;;
51654;SDS011;37732;53.106;7.030;2023-09-07T11:05:17;6.13;;;4.78;;
51654;SDS011;37732;53.106;7.030;2023-09-07T11:07:44;7.05;;;5.43;;
51654;SDS011;37732;53.106;7.030;2023-09-07T11:10:22;7.50;;;5.20;;
51654;SDS011;37732;53.106;7.030;2023-09-07T11:12:48;7.20;;;4.95;;
51654;SDS011;37732;53.106;7.030;2023-09-07T11:15:19;15.55;;;5.72;;
51654;SDS011;37732;53.106;7.030;2023-09-07T11:17:49;7.80;;;5.15;;
51654;SDS011;37732;53.106;7.030;2023-09-07T11:20:20;9.07;;;5.43;;
51654;SDS011;37732;53.106;7.030;2023-09-07T11:22:48;7.07;;;5.18;;
51654;SDS011;37732;53.106;7.030;2023-09-07T11:25:15;6.40;;;4.82;;
51654;SDS011;37732;53.106;7.030;2023-09-07T11:27:48;9.77;;;5.40;;
51654;SDS011;37732;53.106;7.030;2023-09-07T11:30:15;7.78;;;5.13;;
51654;SDS011;37732;53.106;7.030;2023-09-07T11:32:44;5.82;;;4.97;;
51654;SDS011;37732;53.106;7.030;2023-09-07T11:35:13;5.70;;;4.93;;
51654;SDS011;37732;53.106;7.030;2023-09-07T11:37:41;6.50;;;4.88;;
51654;SDS011;37732;53.106;7.030;2023-09-07T11:40:08;8.15;;;5.22;;
51654;SDS011;37732;53.106;7.030;2023-09-07T11:42:40;7.60;;;5.05;;
51654;SDS011;37732;53.106;7.030;2023-09-07T11:45:08;8.45;;;5.32;;
51654;SDS011;37732;53.106;7.030;2023-09-07T11:47:35;6.13;;;4.90;;
51654;SDS011;37732;53.106;7.030;2023-09-07T11:50:05;7.82;;;5.63;;
51654;SDS011;37732;53.106;7.030;2023-09-07T11:52:33;6.82;;;4.80;;
51654;SDS011;37732;53.106;7.030;2023-09-07T11:55:02;13.10;;;5.40;;
51654;SDS011;37732;53.106;7.030;2023-09-07T11:57:30;9.05;;;5.22;;
51654;SDS011;37732;53.106;7.030;2023-09-07T12:00:02;7.50;;;5.18;;
51654;SDS011;37732;53.106;7.030;2023-09-07T12:02:29;7.07;;;5.45;;
51654;SDS011;37732;53.106;7.030;2023-09-07T12:04:57;7.13;;;5.30;;
51654;SDS011;37732;53.106;7.030;2023-09-07T12:07:27;8.35;;;5.50;;
51654;SDS011;37732;53.106;7.030;2023-09-07T12:09:53;7.47;;;4.95;;
51654;SDS011;37732;53.106;7.030;2023-09-07T12:12:24;7.45;;;5.40;;
51654;SDS011;37732;53.106;7.030;2023-09-07T12:14:51;8.10;;;5.10;;
51654;SDS011;37732;53.106;7.030;2023-09-07T12:17:19;6.40;;;4.65;;
51654;SDS011;37732;53.106;7.030;2023-09-07T12:19:46;5.15;;;4.00;;
51654;SDS011;37732;53.106;7.030;2023-09-07T12:22:13;7.10;;;4.70;;
51654;SDS011;37732;53.106;7.030;2023-09-07T12:24:40;5.65;;;4.22;;
51654;SDS011;37732;53.106;7.030;2023-09-07T12:27:07;8.63;;;5.13;;
51654;SDS011;37732;53.106;7.030;2023-09-07T12:29:40;6.53;;;4.82;;
51654;SDS011;37732;53.106;7.030;2023-09-07T12:32:10;5.97;;;5.20;;
51654;SDS011;37732;53.106;7.030;2023-09-07T12:34:37;6.90;;;4.38;;
51654;SDS011;37732;53.106;7.030;2023-09-07T12:37:04;6.40;;;4.70;;
51654;SDS011;37732;53.106;7.030;2023-09-07T12:39:33;7.82;;;5.03;;
51654;SDS011;37732;53.106;7.030;2023-09-07T12:42:01;6.45;;;4.78;;
51654;SDS011;37732;53.106;7.030;2023-09-07T12:44:29;6.90;;;4.55;;
51654;SDS011;37732;53.106;7.030;2023-09-07T12:46:55;5.35;;;4.10;;
51654;SDS011;37732;53.106;7.030;2023-09-07T12:49:25;6.70;;;4.60;;
51654;SDS011;37732;53.106;7.030;2023-09-07T12:51:52;6.00;;;4.75;;
51654;SDS011;37732;53.106;7.030;2023-09-07T12:54:21;5.70;;;4.60;;
51654;SDS011;37732;53.106;7.030;2023-09-07T12:56:48;6.43;;;4.72;;
51654;SDS011;37732;53.106;7.030;2023-09-07T12:59:15;6.00;;;4.57;;
51654;SDS011;37732;53.106;7.030;2023-09-07T13:01:42;7.35;;;4.45;;
51654;SDS011;37732;53.106;7.030;2023-09-07T13:04:08;6.93;;;4.65;;
51654;SDS011;37732;53.106;7.030;2023-09-07T13:06:38;8.13;;;4.65;;
51654;SDS011;37732;53.106;7.030;2023-09-07T13:09:07;6.63;;;4.80;;
51654;SDS011;37732;53.106;7.030;2023-09-07T13:11:36;6.15;;;4.55;;
51654;SDS011;37732;53.106;7.030;2023-09-07T13:14:06;6.43;;;5.30;;
51654;SDS011;37732;53.106;7.030;2023-09-07T13:16:39;6.30;;;5.05;;
51654;SDS011;37732;53.106;7.030;2023-09-07T13:19:08;7.22;;;4.53;;
51654;SDS011;37732;53.106;7.030;2023-09-07T13:21:36;7.18;;;4.85;;
51654;SDS011;37732;53.106;7.030;2023-09-07T13:24:04;10.32;;;4.80;;
51654;SDS011;37732;53.106;7.030;2023-09-07T13:26:32;11.27;;;5.07;;
51654;SDS011;37732;53.106;7.030;2023-09-07T13:28:58;8.10;;;4.28;;
51654;SDS011;37732;53.106;7.030;2023-09-07T13:31:24;6.47;;;4.60;;
51654;SDS011;37732;53.106;7.030;2023-09-07T13:33:51;8.30;;;4.80;;
51654;SDS011;37732;53.106;7.030;2023-09-07T13:36:18;10.27;;;5.47;;
51654;SDS011;37732;53.106;7.030;2023-09-07T13:38:49;7.28;;;4.97;;
51654;SDS011;37732;53.106;7.030;2023-09-07T13:41:17;5.90;;;4.25;;
51654;SDS011;37732;53.106;7.030;2023-09-07T13:43:47;7.15;;;4.80;;
51654;SDS011;37732;53.106;7.030;2023-09-07T13:46:19;6.75;;;4.78;;
51654;SDS011;37732;53.106;7.030;2023-09-07T13:48:45;5.80;;;4.75;;
51654;SDS011;37732;53.106;7.030;2023-09-07T13:51:17;8.63;;;5.35;;
51654;SDS011;37732;53.106;7.030;2023-09-07T13:53:45;6.20;;;4.35;;
51654;SDS011;37732;53.106;7.030;2023-09-07T13:56:13;7.68;;;5.43;;
51654;SDS011;37732;53.106;7.030;2023-09-07T13:58:40;7.82;;;4.80;;
51654;SDS011;37732;53.106;7.030;2023-09-07T14:01:15;6.25;;;4.65;;
51654;SDS011;37732;53.106;7.030;2023-09-07T14:03:45;8.38;;;4.88;;
51654;SDS011;37732;53.106;7.030;2023-09-07T14:06:12;7.20;;;4.60;;
51654;SDS011;37732;53.106;7.030;2023-09-07T14:08:39;6.88;;;4.63;;
51654;SDS011;37732;53.106;7.030;2023-09-07T14:11:07;6.88;;;4.60;;
51654;SDS011;37732;53.106;7.030;2023-09-07T14:13:38;6.78;;;5.25;;
51654;SDS011;37732;53.106;7.030;2023-09-07T14:16:05;6.32;;;4.50;;
51654;SDS011;37732;53.106;7.030;2023-09-07T14:18:35;8.38;;;4.88;;
51654;SDS011;37732;53.106;7.030;2023-09-07T14:21:01;6.25;;;4.70;;
51654;SDS011;37732;53.106;7.030;2023-09-07T14:23:32;7.50;;;4.63;;
51654;SDS011;37732;53.106;7.030;2023-09-07T14:25:59;7.40;;;4.93;;
51654;SDS011;37732;53.106;7.030;2023-09-07T14:28:30;7.15;;;4.60;;
51654;SDS011;37732;53.106;7.030;2023-09-07T14:30:58;5.95;;;4.05;;
51654;SDS011;37732;53.106;7.030;2023-09-07T14:33:28;9.38;;;4.78;;
51654;SDS011;37732;53.106;7.030;2023-09-07T14:35:55;6.80;;;5.07;;
51654;SDS011;37732;53.106;7.030;2023-09-07T14:38:22;6.95;;;4.07;;
51654;SDS011;37732;53.106;7.030;2023-09-07T14:40:54;6.80;;;4.38;;
51654;SDS011;37732;53.106;7.030;2023-09-07T14:43:22;6.75;;;5.25;;
51654;SDS011;37732;53.106;7.030;2023-09-07T14:45:50;8.68;;;5.05;;
51654;SDS011;37732;53.106;7.030;2023-09-07T14:48:17;6.05;;;4.35;;
51654;SDS011;37732;53.106;7.030;2023-09-07T14:50:47;7.40;;;4.75;;
51654;SDS011;37732;53.106;7.030;2023-09-07T14:53:17;5.43;;;4.07;;
51654;SDS011;37732;53.106;7.030;2023-09-07T14:55:45;8.02;;;4.90;;
51654;SDS011;37732;53.106;7.030;2023-09-07T14:58:13;8.00;;;4.80;;
51654;SDS011;37732;53.106;7.030;2023-09-07T15:00:41;7.57;;;4.60;;